Terminal Aerodrome Forecast
Issued by NWS

Home | Current Version | Previous Version | Text Only | Print | Product List | Glossary Off
Versions: 1 2 3 4 5 6 7 8 9 10 11 12 13 14 15 16 17 18 19 20 21 22 23

000
FTUS43 KOAX 251141
TAFCDR
TAF
KCDR 251141Z 2512/2612 29017G25KT P6SM SCT050 BKN080
     FM251300 30011KT 2SM -SN BKN015
     FM251700 35014G24KT P6SM VCSH SCT020 BKN030
     FM260400 01011KT P6SM OVC050=

USA.gov is the U.S. government's official web portal to all federal, state and local government web resources and services.